sensor_id;sensor_type;location;lat;lon;timestamp;noise_LAeq;noise_LA_min;noise_LA_max;noise_LA01;noise_LA95
72686;Laerm;61365;52.162;4.500;2023-03-03T00:01:42;46.99;37.01;57.51;;
72686;Laerm;61365;52.162;4.500;2023-03-03T00:04:09;46.94;36.95;58.38;;
72686;Laerm;61365;52.162;4.500;2023-03-03T00:06:35;46.99;37.43;57.34;;
72686;Laerm;61365;52.162;4.500;2023-03-03T00:09:01;47.02;36.85;57.56;;
72686;Laerm;61365;52.162;4.500;2023-03-03T00:11:28;47.10;37.30;58.75;;
72686;Laerm;61365;52.162;4.500;2023-03-03T00:13:55;47.10;36.75;59.30;;
72686;Laerm;61365;52.162;4.500;2023-03-03T00:16:33;47.06;37.06;57.46;;
72686;Laerm;61365;52.162;4.500;2023-03-03T00:19:00;46.97;37.41;56.94;;
72686;Laerm;61365;52.162;4.500;2023-03-03T00:21:39;47.08;36.91;58.91;;
72686;Laerm;61365;52.162;4.500;2023-03-03T00:24:36;46.97;36.97;57.22;;
72686;Laerm;61365;52.162;4.500;2023-03-03T00:27:33;47.02;36.97;57.06;;
72686;Laerm;61365;52.162;4.500;2023-03-03T00:30:01;47.11;37.19;58.71;;
72686;Laerm;61365;52.162;4.500;2023-03-03T00:32:43;47.16;36.28;57.29;;
72686;Laerm;61365;52.162;4.500;2023-03-03T00:35:29;47.01;36.51;57.89;;
72686;Laerm;61365;52.162;4.500;2023-03-03T00:37:59;47.07;36.72;56.88;;
72686;Laerm;61365;52.162;4.500;2023-03-03T00:40:35;47.05;36.55;56.77;;
72686;Laerm;61365;52.162;4.500;2023-03-03T00:43:29;46.68;36.68;58.00;;
72686;Laerm;61365;52.162;4.500;2023-03-03T00:45:59;46.95;37.46;57.80;;
72686;Laerm;61365;52.162;4.500;2023-03-03T00:48:41;46.93;37.25;57.84;;
72686;Laerm;61365;52.162;4.500;2023-03-03T00:51:29;47.05;38.03;57.55;;
72686;Laerm;61365;52.162;4.500;2023-03-03T00:53:57;47.17;37.20;58.01;;
72686;Laerm;61365;52.162;4.500;2023-03-03T00:56:25;47.15;37.09;57.55;;
72686;Laerm;61365;52.162;4.500;2023-03-03T00:58:53;47.09;37.19;58.03;;
72686;Laerm;61365;52.162;4.500;2023-03-03T01:01:19;47.14;36.96;57.21;;
72686;Laerm;61365;52.162;4.500;2023-03-03T01:03:45;47.02;37.00;57.79;;
72686;Laerm;61365;52.162;4.500;2023-03-03T01:06:12;47.25;34.14;62.60;;
72686;Laerm;61365;52.162;4.500;2023-03-03T01:08:40;47.13;37.10;57.99;;
72686;Laerm;61365;52.162;4.500;2023-03-03T01:11:21;47.02;37.24;56.77;;
72686;Laerm;61365;52.162;4.500;2023-03-03T01:13:50;46.96;37.40;57.08;;
72686;Laerm;61365;52.162;4.500;2023-03-03T01:16:18;47.11;36.67;57.58;;
72686;Laerm;61365;52.162;4.500;2023-03-03T01:18:46;47.15;36.99;56.24;;
72686;Laerm;61365;52.162;4.500;2023-03-03T01:21:12;47.27;36.79;57.84;;
72686;Laerm;61365;52.162;4.500;2023-03-03T01:23:38;47.12;36.67;56.56;;
72686;Laerm;61365;52.162;4.500;2023-03-03T01:26:05;47.12;36.86;57.42;;
72686;Laerm;61365;52.162;4.500;2023-03-03T01:28:33;47.06;37.15;58.27;;
72686;Laerm;61365;52.162;4.500;2023-03-03T01:31:04;46.97;37.15;58.18;;
72686;Laerm;61365;52.162;4.500;2023-03-03T01:33:34;47.01;36.76;57.54;;
72686;Laerm;61365;52.162;4.500;2023-03-03T01:36:01;47.12;36.86;56.93;;
72686;Laerm;61365;52.162;4.500;2023-03-03T01:38:28;46.94;37.03;57.90;;
72686;Laerm;61365;52.162;4.500;2023-03-03T01:40:57;47.00;36.62;58.82;;
72686;Laerm;61365;52.162;4.500;2023-03-03T01:43:30;47.07;37.11;58.02;;
72686;Laerm;61365;52.162;4.500;2023-03-03T01:51:05;47.09;36.37;57.44;;
72686;Laerm;61365;52.162;4.500;2023-03-03T01:53:52;47.04;36.53;57.12;;
72686;Laerm;61365;52.162;4.500;2023-03-03T01:56:20;46.92;37.44;58.16;;
72686;Laerm;61365;52.162;4.500;2023-03-03T01:59:04;47.00;36.67;57.20;;
72686;Laerm;61365;52.162;4.500;2023-03-03T02:01:33;46.81;37.33;57.48;;
72686;Laerm;61365;52.162;4.500;2023-03-03T02:03:59;46.89;36.13;56.48;;
72686;Laerm;61365;52.162;4.500;2023-03-03T02:06:39;46.78;37.27;57.33;;
72686;Laerm;61365;52.162;4.500;2023-03-03T02:09:15;47.02;35.89;58.20;;
72686;Laerm;61365;52.162;4.500;2023-03-03T02:11:48;47.13;36.09;57.97;;
72686;Laerm;61365;52.162;4.500;2023-03-03T02:14:17;46.78;36.40;58.15;;
72686;Laerm;61365;52.162;4.500;2023-03-03T02:16:44;47.00;37.16;57.90;;
72686;Laerm;61365;52.162;4.500;2023-03-03T02:21:54;47.04;37.43;58.72;;
72686;Laerm;61365;52.162;4.500;2023-03-03T02:27:02;46.83;36.79;58.63;;
72686;Laerm;61365;52.162;4.500;2023-03-03T02:29:29;47.02;36.85;57.72;;
72686;Laerm;61365;52.162;4.500;2023-03-03T02:31:58;46.98;37.29;57.92;;
72686;Laerm;61365;52.162;4.500;2023-03-03T02:34:25;46.93;36.78;57.01;;
72686;Laerm;61365;52.162;4.500;2023-03-03T02:36:51;47.04;36.94;57.88;;
72686;Laerm;61365;52.162;4.500;2023-03-03T02:39:23;47.05;37.30;57.75;;
72686;Laerm;61365;52.162;4.500;2023-03-03T02:41:53;46.93;36.64;57.49;;
72686;Laerm;61365;52.162;4.500;2023-03-03T02:44:25;47.29;36.65;60.33;;
72686;Laerm;61365;52.162;4.500;2023-03-03T02:46:54;46.85;36.33;58.19;;
72686;Laerm;61365;52.162;4.500;2023-03-03T02:49:25;47.04;36.74;57.23;;
72686;Laerm;61365;52.162;4.500;2023-03-03T02:51:53;46.98;37.22;57.71;;
72686;Laerm;61365;52.162;4.500;2023-03-03T02:54:22;46.98;36.75;57.64;;
72686;Laerm;61365;52.162;4.500;2023-03-03T02:56:49;47.04;36.46;57.55;;
72686;Laerm;61365;52.162;4.500;2023-03-03T02:59:16;47.09;37.12;58.41;;
72686;Laerm;61365;52.162;4.500;2023-03-03T03:01:43;46.99;37.24;59.04;;
72686;Laerm;61365;52.162;4.500;2023-03-03T03:04:16;46.99;37.04;57.64;;
72686;Laerm;61365;52.162;4.500;2023-03-03T03:06:44;47.01;37.14;57.46;;
72686;Laerm;61365;52.162;4.500;2023-03-03T03:09:12;46.92;36.19;58.10;;
72686;Laerm;61365;52.162;4.500;2023-03-03T03:11:39;46.89;36.77;58.49;;
72686;Laerm;61365;52.162;4.500;2023-03-03T03:14:09;47.00;36.93;57.89;;
72686;Laerm;61365;52.162;4.500;2023-03-03T03:16:36;46.94;37.06;57.59;;
72686;Laerm;61365;52.162;4.500;2023-03-03T03:19:03;47.03;36.56;58.43;;
72686;Laerm;61365;52.162;4.500;2023-03-03T03:21:31;47.14;36.76;57.53;;
72686;Laerm;61365;52.162;4.500;2023-03-03T03:23:58;47.03;37.21;57.93;;
72686;Laerm;61365;52.162;4.500;2023-03-03T03:26:24;46.96;37.28;57.16;;
72686;Laerm;61365;52.162;4.500;2023-03-03T03:28:51;47.08;36.85;57.68;;
72686;Laerm;61365;52.162;4.500;2023-03-03T03:31:18;46.90;36.18;57.55;;
72686;Laerm;61365;52.162;4.500;2023-03-03T03:33:46;47.12;36.74;57.02;;
72686;Laerm;61365;52.162;4.500;2023-03-03T03:36:12;46.72;36.14;56.83;;
72686;Laerm;61365;52.162;4.500;2023-03-03T03:38:39;46.96;35.69;61.31;;
72686;Laerm;61365;52.162;4.500;2023-03-03T03:41:11;47.05;36.26;57.71;;
72686;Laerm;61365;52.162;4.500;2023-03-03T03:43:38;47.04;36.55;57.99;;
72686;Laerm;61365;52.162;4.500;2023-03-03T03:46:04;46.94;36.92;58.11;;
72686;Laerm;61365;52.162;4.500;2023-03-03T03:48:31;46.91;36.66;57.58;;
72686;Laerm;61365;52.162;4.500;2023-03-03T03:50:57;47.05;37.04;58.70;;
72686;Laerm;61365;52.162;4.500;2023-03-03T03:53:27;46.92;36.98;57.37;;
72686;Laerm;61365;52.162;4.500;2023-03-03T03:55:53;47.11;36.32;57.78;;
72686;Laerm;61365;52.162;4.500;2023-03-03T03:58:23;47.07;36.43;58.75;;
72686;Laerm;61365;52.162;4.500;2023-03-03T04:00:49;46.95;37.06;58.12;;
72686;Laerm;61365;52.162;4.500;2023-03-03T04:03:16;47.01;36.37;58.52;;
72686;Laerm;61365;52.162;4.500;2023-03-03T04:05:42;46.79;36.99;61.74;;
72686;Laerm;61365;52.162;4.500;2023-03-03T04:08:10;46.78;37.00;57.89;;
72686;Laerm;61365;52.162;4.500;2023-03-03T04:10:36;46.92;36.74;58.41;;
72686;Laerm;61365;52.162;4.500;2023-03-03T04:13:03;47.01;36.46;57.94;;
72686;Laerm;61365;52.162;4.500;2023-03-03T04:15:29;47.01;37.12;57.72;;
72686;Laerm;61365;52.162;4.500;2023-03-03T04:17:56;46.75;36.68;57.40;;
72686;Laerm;61365;52.162;4.500;2023-03-03T04:20:22;46.96;36.57;58.85;;
72686;Laerm;61365;52.162;4.500;2023-03-03T04:22:49;46.94;36.76;58.72;;
72686;Laerm;61365;52.162;4.500;2023-03-03T04:25:19;46.99;37.08;57.31;;
72686;Laerm;61365;52.162;4.500;2023-03-03T04:27:45;46.83;36.89;58.04;;
72686;Laerm;61365;52.162;4.500;2023-03-03T04:30:15;46.96;36.70;58.09;;
72686;Laerm;61365;52.162;4.500;2023-03-03T04:32:41;46.15;36.85;58.28;;
72686;Laerm;61365;52.162;4.500;2023-03-03T04:35:09;45.51;36.70;59.28;;
72686;Laerm;61365;52.162;4.500;2023-03-03T04:37:37;45.67;37.00;58.70;;
72686;Laerm;61365;52.162;4.500;2023-03-03T04:40:06;45.69;36.64;58.52;;
72686;Laerm;61365;52.162;4.500;2023-03-03T04:42:34;45.60;37.38;58.27;;
72686;Laerm;61365;52.162;4.500;2023-03-03T04:45:00;46.44;33.68;61.99;;
72686;Laerm;61365;52.162;4.500;2023-03-03T04:47:27;46.86;37.02;57.78;;
72686;Laerm;61365;52.162;4.500;2023-03-03T04:49:53;47.09;37.10;59.09;;
72686;Laerm;61365;52.162;4.500;2023-03-03T04:52:20;46.86;36.92;58.90;;
72686;Laerm;61365;52.162;4.500;2023-03-03T04:54:46;46.87;36.17;57.62;;
72686;Laerm;61365;52.162;4.500;2023-03-03T04:57:13;46.85;37.05;57.83;;
72686;Laerm;61365;52.162;4.500;2023-03-03T04:59:39;47.15;37.15;58.13;;
72686;Laerm;61365;52.162;4.500;2023-03-03T05:02:05;46.99;37.31;57.22;;
72686;Laerm;61365;52.162;4.500;2023-03-03T05:04:32;47.01;36.90;58.78;;
72686;Laerm;61365;52.162;4.500;2023-03-03T05:06:59;46.92;36.98;59.02;;
72686;Laerm;61365;52.162;4.500;2023-03-03T05:09:26;46.95;36.74;58.13;;
72686;Laerm;61365;52.162;4.500;2023-03-03T05:11:53;46.89;37.00;58.11;;
72686;Laerm;61365;52.162;4.500;2023-03-03T05:14:19;46.85;37.38;58.43;;
72686;Laerm;61365;52.162;4.500;2023-03-03T05:16:46;46.82;36.65;58.86;;
72686;Laerm;61365;52.162;4.500;2023-03-03T05:19:13;46.77;36.22;58.46;;
72686;Laerm;61365;52.162;4.500;2023-03-03T05:21:39;46.63;36.61;57.45;;
72686;Laerm;61365;52.162;4.500;2023-03-03T05:24:10;46.91;37.17;58.06;;
72686;Laerm;61365;52.162;4.500;2023-03-03T05:26:39;46.90;36.75;57.37;;
72686;Laerm;61365;52.162;4.500;2023-03-03T05:29:06;46.91;37.12;58.96;;
72686;Laerm;61365;52.162;4.500;2023-03-03T05:31:33;47.03;36.87;58.06;;
72686;Laerm;61365;52.162;4.500;2023-03-03T05:34:00;46.90;37.02;60.37;;
72686;Laerm;61365;52.162;4.500;2023-03-03T05:36:27;46.94;36.86;59.34;;
72686;Laerm;61365;52.162;4.500;2023-03-03T05:38:53;47.00;36.83;57.74;;
72686;Laerm;61365;52.162;4.500;2023-03-03T05:41:20;46.31;36.86;58.49;;
72686;Laerm;61365;52.162;4.500;2023-03-03T05:43:46;46.81;37.25;57.63;;
72686;Laerm;61365;52.162;4.500;2023-03-03T05:46:13;46.81;37.42;59.78;;
72686;Laerm;61365;52.162;4.500;2023-03-03T05:48:39;46.80;37.29;59.34;;
72686;Laerm;61365;52.162;4.500;2023-03-03T05:51:06;46.85;36.56;58.01;;
72686;Laerm;61365;52.162;4.500;2023-03-03T05:53:33;47.08;37.24;59.77;;
72686;Laerm;61365;52.162;4.500;2023-03-03T05:56:00;46.87;36.70;59.32;;
72686;Laerm;61365;52.162;4.500;2023-03-03T05:58:26;46.93;37.18;57.74;;
72686;Laerm;61365;52.162;4.500;2023-03-03T06:00:53;46.91;36.32;58.04;;
72686;Laerm;61365;52.162;4.500;2023-03-03T06:03:20;46.89;36.52;60.10;;
72686;Laerm;61365;52.162;4.500;2023-03-03T06:05:47;46.87;36.19;60.66;;
72686;Laerm;61365;52.162;4.500;2023-03-03T06:08:14;46.92;37.69;60.55;;
72686;Laerm;61365;52.162;4.500;2023-03-03T06:10:40;47.02;37.04;59.44;;
72686;Laerm;61365;52.162;4.500;2023-03-03T06:13:06;47.01;37.07;60.30;;
72686;Laerm;61365;52.162;4.500;2023-03-03T06:15:36;46.74;37.19;58.20;;
72686;Laerm;61365;52.162;4.500;2023-03-03T06:18:03;47.12;37.32;57.72;;
72686;Laerm;61365;52.162;4.500;2023-03-03T06:20:29;46.88;34.90;62.80;;
72686;Laerm;61365;52.162;4.500;2023-03-03T06:22:56;46.87;37.32;60.22;;
72686;Laerm;61365;52.162;4.500;2023-03-03T06:25:23;46.84;37.39;57.26;;
72686;Laerm;61365;52.162;4.500;2023-03-03T06:27:52;47.01;34.31;63.07;;
72686;Laerm;61365;52.162;4.500;2023-03-03T06:30:19;46.85;37.26;58.98;;
72686;Laerm;61365;52.162;4.500;2023-03-03T06:32:46;46.88;37.13;58.05;;
72686;Laerm;61365;52.162;4.500;2023-03-03T06:35:12;47.09;37.54;60.01;;
72686;Laerm;61365;52.162;4.500;2023-03-03T06:37:39;46.70;36.64;58.11;;
72686;Laerm;61365;52.162;4.500;2023-03-03T06:40:06;46.87;36.39;58.39;;
72686;Laerm;61365;52.162;4.500;2023-03-03T06:42:32;46.82;37.24;58.61;;
72686;Laerm;61365;52.162;4.500;2023-03-03T06:44:59;46.79;37.30;57.37;;
72686;Laerm;61365;52.162;4.500;2023-03-03T06:47:25;46.93;36.77;57.54;;
72686;Laerm;61365;52.162;4.500;2023-03-03T06:49:51;46.96;37.36;59.12;;
72686;Laerm;61365;52.162;4.500;2023-03-03T06:52:24;46.95;36.79;57.60;;
72686;Laerm;61365;52.162;4.500;2023-03-03T06:54:59;47.05;33.47;62.36;;
72686;Laerm;61365;52.162;4.500;2023-03-03T06:57:30;46.92;36.90;58.33;;
72686;Laerm;61365;52.162;4.500;2023-03-03T07:00:14;47.05;37.27;59.06;;
72686;Laerm;61365;52.162;4.500;2023-03-03T07:02:41;46.99;37.23;59.44;;
72686;Laerm;61365;52.162;4.500;2023-03-03T07:05:16;46.92;37.26;58.69;;
72686;Laerm;61365;52.162;4.500;2023-03-03T07:07:46;47.05;37.26;57.69;;
72686;Laerm;61365;52.162;4.500;2023-03-03T07:10:24;47.06;37.51;58.63;;
72686;Laerm;61365;52.162;4.500;2023-03-03T07:12:52;46.83;36.64;59.00;;
72686;Laerm;61365;52.162;4.500;2023-03-03T07:15:29;47.10;36.81;58.24;;
72686;Laerm;61365;52.162;4.500;2023-03-03T07:17:59;47.00;37.31;58.12;;
72686;Laerm;61365;52.162;4.500;2023-03-03T07:20:35;47.13;35.07;61.38;;
72686;Laerm;61365;52.162;4.500;2023-03-03T07:23:22;47.03;34.90;62.78;;
72686;Laerm;61365;52.162;4.500;2023-03-03T07:25:50;46.84;37.24;57.53;;
72686;Laerm;61365;52.162;4.500;2023-03-03T07:28:28;46.93;37.03;58.06;;
72686;Laerm;61365;52.162;4.500;2023-03-03T07:30:58;46.77;36.95;58.21;;
72686;Laerm;61365;52.162;4.500;2023-03-03T07:33:38;45.60;37.28;58.62;;
72686;Laerm;61365;52.162;4.500;2023-03-03T07:36:34;45.60;37.39;57.91;;
72686;Laerm;61365;52.162;4.500;2023-03-03T07:39:25;45.66;36.92;58.90;;
72686;Laerm;61365;52.162;4.500;2023-03-03T07:42:08;45.60;36.93;57.83;;
72686;Laerm;61365;52.162;4.500;2023-03-03T07:44:40;45.50;36.03;58.13;;
72686;Laerm;61365;52.162;4.500;2023-03-03T07:50:18;45.69;37.15;59.61;;
72686;Laerm;61365;52.162;4.500;2023-03-03T07:52:58;45.68;36.48;58.30;;
72686;Laerm;61365;52.162;4.500;2023-03-03T07:55:37;45.71;37.16;61.99;;
72686;Laerm;61365;52.162;4.500;2023-03-03T07:58:21;45.58;36.85;61.09;;
72686;Laerm;61365;52.162;4.500;2023-03-03T08:03:56;45.63;37.31;58.60;;
72686;Laerm;61365;52.162;4.500;2023-03-03T08:09:26;45.43;36.76;58.99;;
72686;Laerm;61365;52.162;4.500;2023-03-03T08:12:10;45.55;35.81;58.11;;
72686;Laerm;61365;52.162;4.500;2023-03-03T08:14:38;45.66;36.78;59.16;;
72686;Laerm;61365;52.162;4.500;2023-03-03T08:17:21;45.56;36.61;59.40;;
72686;Laerm;61365;52.162;4.500;2023-03-03T08:19:50;45.69;37.45;58.06;;
72686;Laerm;61365;52.162;4.500;2023-03-03T08:22:30;45.34;37.35;57.35;;
72686;Laerm;61365;52.162;4.500;2023-03-03T08:25:01;45.67;37.07;58.44;;
72686;Laerm;61365;52.162;4.500;2023-03-03T08:27:28;45.79;37.38;58.02;;
72686;Laerm;61365;52.162;4.500;2023-03-03T08:29:56;46.10;36.64;57.57;;
72686;Laerm;61365;52.162;4.500;2023-03-03T08:32:23;46.91;37.37;57.26;;
72686;Laerm;61365;52.162;4.500;2023-03-03T08:34:49;47.00;36.87;57.35;;
72686;Laerm;61365;52.162;4.500;2023-03-03T08:37:16;46.88;37.18;58.04;;
72686;Laerm;61365;52.162;4.500;2023-03-03T08:39:42;46.95;37.27;58.49;;
72686;Laerm;61365;52.162;4.500;2023-03-03T08:42:09;46.92;36.93;57.88;;
72686;Laerm;61365;52.162;4.500;2023-03-03T08:44:35;46.95;36.68;58.42;;
72686;Laerm;61365;52.162;4.500;2023-03-03T08:47:02;46.98;36.83;56.81;;
72686;Laerm;61365;52.162;4.500;2023-03-03T08:49:28;46.97;37.46;57.32;;
72686;Laerm;61365;52.162;4.500;2023-03-03T08:51:54;46.92;36.86;57.17;;
72686;Laerm;61365;52.162;4.500;2023-03-03T08:54:22;47.10;36.60;57.96;;
72686;Laerm;61365;52.162;4.500;2023-03-03T08:56:48;47.08;36.98;57.98;;
72686;Laerm;61365;52.162;4.500;2023-03-03T08:59:15;47.03;36.39;59.54;;
72686;Laerm;61365;52.162;4.500;2023-03-03T09:01:41;47.04;37.54;56.89;;
72686;Laerm;61365;52.162;4.500;2023-03-03T09:04:09;47.11;36.95;56.46;;
72686;Laerm;61365;52.162;4.500;2023-03-03T09:06:36;47.04;37.09;57.31;;
72686;Laerm;61365;52.162;4.500;2023-03-03T09:09:02;47.05;36.84;57.86;;
72686;Laerm;61365;52.162;4.500;2023-03-03T09:11:29;47.11;36.84;57.18;;
72686;Laerm;61365;52.162;4.500;2023-03-03T09:14:09;46.68;36.80;57.78;;
72686;Laerm;61365;52.162;4.500;2023-03-03T09:16:51;45.48;37.39;57.99;;
72686;Laerm;61365;52.162;4.500;2023-03-03T09:19:22;45.53;36.71;58.72;;
72686;Laerm;61365;52.162;4.500;2023-03-03T09:21:55;45.51;37.01;58.98;;
72686;Laerm;61365;52.162;4.500;2023-03-03T09:24:27;45.48;37.21;58.41;;
72686;Laerm;61365;52.162;4.500;2023-03-03T09:26:58;45.57;37.67;57.80;;
72686;Laerm;61365;52.162;4.500;2023-03-03T09:29:31;45.48;37.41;56.95;;
72686;Laerm;61365;52.162;4.500;2023-03-03T09:32:34;45.41;37.17;57.36;;
72686;Laerm;61365;52.162;4.500;2023-03-03T09:35:33;45.57;37.43;60.18;;
72686;Laerm;61365;52.162;4.500;2023-03-03T09:38:30;45.51;37.42;60.59;;
72686;Laerm;61365;52.162;4.500;2023-03-03T09:41:21;45.39;37.28;58.21;;
72686;Laerm;61365;52.162;4.500;2023-03-03T09:49:35;45.63;37.42;57.99;;
72686;Laerm;61365;52.162;4.500;2023-03-03T09:55:38;45.46;37.55;59.01;;
72686;Laerm;61365;52.162;4.500;2023-03-03T09:58:44;46.32;36.56;58.62;;
72686;Laerm;61365;52.162;4.500;2023-03-03T10:12:57;47.12;36.97;56.96;;
72686;Laerm;61365;52.162;4.500;2023-03-03T10:15:51;47.29;36.47;57.73;;
72686;Laerm;61365;52.162;4.500;2023-03-03T10:21:49;47.17;37.46;57.20;;
72686;Laerm;61365;52.162;4.500;2023-03-03T10:24:28;47.33;37.04;57.14;;
72686;Laerm;61365;52.162;4.500;2023-03-03T10:27:37;47.29;37.17;57.08;;
72686;Laerm;61365;52.162;4.500;2023-03-03T10:33:14;47.27;36.24;56.52;;
72686;Laerm;61365;52.162;4.500;2023-03-03T10:36:22;47.30;36.13;56.17;;
72686;Laerm;61365;52.162;4.500;2023-03-03T10:51:41;45.68;36.68;57.66;;
72686;Laerm;61365;52.162;4.500;2023-03-03T10:54:43;45.57;37.48;57.72;;
72686;Laerm;61365;52.162;4.500;2023-03-03T11:03:27;47.24;36.82;57.79;;
72686;Laerm;61365;52.162;4.500;2023-03-03T11:06:42;47.49;37.28;58.44;;
72686;Laerm;61365;52.162;4.500;2023-03-03T11:12:19;47.37;37.08;57.63;;
72686;Laerm;61365;52.162;4.500;2023-03-03T11:18:00;47.63;37.24;57.34;;
72686;Laerm;61365;52.162;4.500;2023-03-03T11:37:45;47.43;37.18;56.43;;
72686;Laerm;61365;52.162;4.500;2023-03-03T11:40:24;47.46;37.42;56.80;;
72686;Laerm;61365;52.162;4.500;2023-03-03T11:43:12;47.54;37.37;58.07;;
72686;Laerm;61365;52.162;4.500;2023-03-03T11:45:55;47.51;37.64;59.22;;
72686;Laerm;61365;52.162;4.500;2023-03-03T11:51:23;47.72;36.91;56.23;;
72686;Laerm;61365;52.162;4.500;2023-03-03T11:54:11;47.45;36.78;56.63;;
72686;Laerm;61365;52.162;4.500;2023-03-03T11:56:47;47.42;37.23;56.60;;
72686;Laerm;61365;52.162;4.500;2023-03-03T12:04:54;47.35;36.89;59.58;;
72686;Laerm;61365;52.162;4.500;2023-03-03T12:08:05;47.57;37.14;56.61;;
72686;Laerm;61365;52.162;4.500;2023-03-03T12:16:54;47.49;37.17;60.71;;
72686;Laerm;61365;52.162;4.500;2023-03-03T12:22:12;47.28;36.38;56.59;;
72686;Laerm;61365;52.162;4.500;2023-03-03T12:30:43;47.38;37.09;56.70;;
72686;Laerm;61365;52.162;4.500;2023-03-03T12:36:55;47.52;37.27;56.07;;
72686;Laerm;61365;52.162;4.500;2023-03-03T12:45:27;47.64;36.36;55.90;;
72686;Laerm;61365;52.162;4.500;2023-03-03T12:48:18;47.55;36.67;56.37;;
72686;Laerm;61365;52.162;4.500;2023-03-03T12:56:43;47.47;37.37;56.11;;
72686;Laerm;61365;52.162;4.500;2023-03-03T12:59:26;47.54;37.11;56.41;;
72686;Laerm;61365;52.162;4.500;2023-03-03T13:08:37;47.58;37.82;57.13;;
72686;Laerm;61365;52.162;4.500;2023-03-03T13:17:14;47.57;37.46;56.11;;
72686;Laerm;61365;52.162;4.500;2023-03-03T13:19:57;47.49;36.21;61.16;;
72686;Laerm;61365;52.162;4.500;2023-03-03T13:28:39;47.66;37.16;57.43;;
72686;Laerm;61365;52.162;4.500;2023-03-03T13:31:15;47.59;37.00;56.57;;
72686;Laerm;61365;52.162;4.500;2023-03-03T13:33:54;47.58;36.41;56.93;;
72686;Laerm;61365;52.162;4.500;2023-03-03T13:36:50;47.58;36.81;56.63;;
72686;Laerm;61365;52.162;4.500;2023-03-03T13:39:25;47.41;34.16;62.78;;
72686;Laerm;61365;52.162;4.500;2023-03-03T13:42:02;47.67;37.09;56.26;;
72686;Laerm;61365;52.162;4.500;2023-03-03T13:44:59;47.44;36.91;60.26;;
72686;Laerm;61365;52.162;4.500;2023-03-03T13:47:41;47.54;37.01;57.47;;
72686;Laerm;61365;52.162;4.500;2023-03-03T13:50:53;47.75;36.23;56.44;;
72686;Laerm;61365;52.162;4.500;2023-03-03T13:57:01;47.47;33.90;61.89;;
72686;Laerm;61365;52.162;4.500;2023-03-03T13:59:55;47.37;37.02;56.73;;
72686;Laerm;61365;52.162;4.500;2023-03-03T14:05:36;47.51;36.96;57.09;;
72686;Laerm;61365;52.162;4.500;2023-03-03T14:11:39;47.44;37.09;57.77;;
72686;Laerm;61365;52.162;4.500;2023-03-03T14:14:35;47.48;37.36;56.34;;
72686;Laerm;61365;52.162;4.500;2023-03-03T14:20:18;47.50;37.43;56.39;;
72686;Laerm;61365;52.162;4.500;2023-03-03T14:23:13;47.49;37.29;59.93;;
72686;Laerm;61365;52.162;4.500;2023-03-03T14:26:10;47.49;37.74;56.97;;
72686;Laerm;61365;52.162;4.500;2023-03-03T14:28:44;47.41;37.70;56.51;;
72686;Laerm;61365;52.162;4.500;2023-03-03T14:31:28;47.54;37.43;61.11;;
72686;Laerm;61365;52.162;4.500;2023-03-03T14:34:01;47.51;37.03;56.76;;
72686;Laerm;61365;52.162;4.500;2023-03-03T14:36:35;47.52;37.53;56.13;;
72686;Laerm;61365;52.162;4.500;2023-03-03T14:39:38;47.52;37.76;56.19;;
72686;Laerm;61365;52.162;4.500;2023-03-03T14:42:36;47.55;37.58;56.23;;
72686;Laerm;61365;52.162;4.500;2023-03-03T14:47:55;47.35;37.70;58.83;;
72686;Laerm;61365;52.162;4.500;2023-03-03T14:50:39;47.62;37.46;60.93;;
72686;Laerm;61365;52.162;4.500;2023-03-03T14:53:34;47.53;37.23;56.36;;
72686;Laerm;61365;52.162;4.500;2023-03-03T14:56:24;47.60;37.66;56.64;;
72686;Laerm;61365;52.162;4.500;2023-03-03T14:59:11;47.46;37.16;56.99;;
72686;Laerm;61365;52.162;4.500;2023-03-03T15:01:41;47.40;37.35;56.19;;
72686;Laerm;61365;52.162;4.500;2023-03-03T15:06:43;47.73;36.13;56.52;;
72686;Laerm;61365;52.162;4.500;2023-03-03T15:09:31;47.56;37.21;56.21;;
72686;Laerm;61365;52.162;4.500;2023-03-03T15:14:47;47.47;37.51;56.98;;
72686;Laerm;61365;52.162;4.500;2023-03-03T15:20:23;47.67;37.90;56.51;;
72686;Laerm;61365;52.162;4.500;2023-03-03T15:23:16;47.57;36.91;56.35;;
72686;Laerm;61365;52.162;4.500;2023-03-03T15:26:52;47.66;37.01;56.49;;
72686;Laerm;61365;52.162;4.500;2023-03-03T15:29:17;47.59;36.24;58.21;;
72686;Laerm;61365;52.162;4.500;2023-03-03T15:35:17;47.59;36.96;60.16;;
72686;Laerm;61365;52.162;4.500;2023-03-03T15:41:11;47.57;37.00;55.91;;
72686;Laerm;61365;52.162;4.500;2023-03-03T15:44:20;47.46;37.62;56.31;;
72686;Laerm;61365;52.162;4.500;2023-03-03T15:52:42;47.50;37.72;57.80;;
72686;Laerm;61365;52.162;4.500;2023-03-03T16:03:46;47.46;37.18;56.01;;
72686;Laerm;61365;52.162;4.500;2023-03-03T16:06:30;47.59;37.13;57.45;;
72686;Laerm;61365;52.162;4.500;2023-03-03T16:12:24;47.49;37.73;56.49;;
72686;Laerm;61365;52.162;4.500;2023-03-03T16:27:29;47.31;36.69;56.05;;
72686;Laerm;61365;52.162;4.500;2023-03-03T16:32:47;47.44;37.20;56.48;;
72686;Laerm;61365;52.162;4.500;2023-03-03T16:35:25;47.38;37.34;56.26;;
72686;Laerm;61365;52.162;4.500;2023-03-03T16:38:34;47.56;36.41;58.05;;
72686;Laerm;61365;52.162;4.500;2023-03-03T16:41:11;47.38;37.57;56.79;;
72686;Laerm;61365;52.162;4.500;2023-03-03T16:46:46;47.40;37.17;55.75;;
72686;Laerm;61365;52.162;4.500;2023-03-03T16:49:36;47.48;37.47;56.01;;
72686;Laerm;61365;52.162;4.500;2023-03-03T16:52:15;47.43;36.87;56.11;;
72686;Laerm;61365;52.162;4.500;2023-03-03T16:55:04;47.33;37.42;56.64;;
72686;Laerm;61365;52.162;4.500;2023-03-03T17:06:37;45.78;36.93;57.98;;
72686;Laerm;61365;52.162;4.500;2023-03-03T17:20:56;45.85;38.01;57.93;;
72686;Laerm;61365;52.162;4.500;2023-03-03T17:29:38;47.38;37.36;56.33;;
72686;Laerm;61365;52.162;4.500;2023-03-03T17:41:18;47.34;37.30;56.44;;
72686;Laerm;61365;52.162;4.500;2023-03-03T17:44:13;47.33;36.70;56.21;;
72686;Laerm;61365;52.162;4.500;2023-03-03T17:46:51;47.41;37.50;56.55;;
72686;Laerm;61365;52.162;4.500;2023-03-03T17:49:40;47.34;37.20;57.97;;
72686;Laerm;61365;52.162;4.500;2023-03-03T18:03:49;47.31;37.27;56.91;;
72686;Laerm;61365;52.162;4.500;2023-03-03T18:10:13;47.31;37.31;56.00;;
72686;Laerm;61365;52.162;4.500;2023-03-03T18:13:12;46.69;37.33;57.30;;
72686;Laerm;61365;52.162;4.500;2023-03-03T18:22:21;45.73;37.46;57.88;;
72686;Laerm;61365;52.162;4.500;2023-03-03T18:35:39;45.92;37.79;57.59;;
72686;Laerm;61365;52.162;4.500;2023-03-03T18:41:07;47.44;37.86;57.16;;
72686;Laerm;61365;52.162;4.500;2023-03-03T18:49:09;47.20;37.35;56.13;;
72686;Laerm;61365;52.162;4.500;2023-03-03T19:05:04;47.42;33.96;62.64;;
72686;Laerm;61365;52.162;4.500;2023-03-03T19:10:47;47.33;36.47;56.70;;
72686;Laerm;61365;52.162;4.500;2023-03-03T19:16:02;47.63;37.72;57.18;;
72686;Laerm;61365;52.162;4.500;2023-03-03T19:21:32;47.07;37.48;56.35;;
72686;Laerm;61365;52.162;4.500;2023-03-03T19:24:24;47.11;37.31;57.61;;
72686;Laerm;61365;52.162;4.500;2023-03-03T19:27:27;47.21;37.29;56.00;;
72686;Laerm;61365;52.162;4.500;2023-03-03T19:42:49;47.46;36.91;56.61;;
72686;Laerm;61365;52.162;4.500;2023-03-03T19:49:08;47.31;37.60;59.95;;
72686;Laerm;61365;52.162;4.500;2023-03-03T19:52:20;47.30;37.19;56.03;;
72686;Laerm;61365;52.162;4.500;2023-03-03T19:55:25;47.34;37.35;56.29;;